Pagrindinis puslapis
METAR-TAF:

METAR-TAF

Oro uostai :

Oro pajėgų bazė

Tulnas, Austrija

platuma: 48-19N, ilguma: 016-07E, Aukštis: 175 m

METAR: trūkstamas

Laikas: 09:56 (07:56 UTC)

Prognozė

Ataskaita buvo paskelbta 2 valandos ir 41 minutes, ne 05:15 UTC
Prognozė galioja nuo 16 metu 06 UTC su 16 metu 15 UTC
Vėjas 15 kt iš Vakarų/Pietvakarių su gūsio iki 25 kt
Matomumas 10 km arba daugiau
Išsisklaidę debesys ne aukštis 4500 ft
Su prošvaistėmis ne aukštis 7000 ft
Laikinai
nuo 16 metu 06 UTC su 16 metu 10 UTC
Vėjas 20 kt iš Vakarų/Pietvakarių su gūsio iki 30 kt
Su prošvaistėmis ne aukštis 4000 ft
Tapsmas
nuo 16 metu 12 UTC su 16 metu 14 UTC
Vėjas 8 kt iš Vakarų
Išsisklaidę debesys ne aukštis 7000 ft
Su prošvaistėmis ne aukštis 10000 ft

TAF: LOXT 160515Z 1606/1615 24015G25KT 9999 SCT045 BKN070 TEMPO 1606/1610 25020G30KT BKN040 BECMG 1612/1614 28008KT SCT070 BKN100

Orai ataskaitas ir orų prognozės (METAR, TAF).

turimą stotys yra geltonos ir raudonos taškus žemėlapyje.

Perkelti pele per norėdami pamatyti stoties vardą.

Tada spustelėkite, norėdami matyti oro stebėjimo ir prognozės.

Norėdami pakeisti žemėlapį: spustelėkite ant žalios mygtukų su juodo kryžiaus žemyn,; žalią mygtuką su brūkšneliu, jei norite nutolinti; arba žalių rodyklių gretimoms žemėlapius.


METAR-TAF: